Terminal Aerodrome Forecast
Issued by NWS Buffalo, NY

Home | Current Version | Previous Version | Text Only | Print | Product List | Glossary On
Versions: 1 2 3 4 5 6 7 8 9 10 11 12 13 14 15 16 17 18 19 20 21 22 23 24 25 26 27 28 29 30 31 32 33
000
FTUS41 KBUF 210500
TAFROC
TAF
KROC 210540Z 2106/2206 18008KT 6SM -SHRA OVC030
     FM211000 VRB04KT 6SM -SHRA OVC012
     FM211700 01009KT 6SM -SHRA OVC012
     FM212000 01013KT 6SM -SHRA OVC012
     FM212100 01014KT 6SM -SHRA OVC007=

USA.gov is the U.S. government's official web portal to all federal, state and local government web resources and services.